Latest Weather Observations for Neptune Island

IDS60801

Issued at 9:01 pm CST Thursday 22 June 2017 (issued every 30 minutes, with the page automatically refreshed every 10 minutes)

About weather observations | Map of weather stations | Latest weather observations for SA | Other Formats
Station Details ID: 018115 Name: NEPTUNE ISLAND Lat: -35.34 Lon: 136.12 Height: 32.0 m
Data from the previous 72 hours. | See also: Recent months at Neptune Island
Date/Time
CST
Temp
°C
App
Temp
°C
Dew
Point
°C
Rel
Hum
%
Delta-T
°C
Wind Press
QNH
hPa
Press
MSL
hPa
Rain since
9am
mm
Dir  Spd
km/h
Gust
km/h
Spd
kts
Gust
kts
22/09:00pm 14.5 12.4 9.9 74 2.4 NNE 11 13 6 7 1020.1 1020.1 0.0
22/08:30pm 14.9 13.3 10.3 74 2.4 NNE 9 13 5 7 1019.9 1019.9 0.0
22/08:00pm 14.5 12.5 10.1 75 2.3 NNE 11 13 6 7 1020.3 1020.3 0.0
22/07:30pm 14.7 13.1 10.1 74 2.4 N 9 11 5 6 1020.3 1020.3 0.0
22/07:00pm 14.6 12.6 10.0 74 2.4 N 11 13 6 7 1020.0 1020.0 0.0
22/06:30pm 14.9 12.8 9.7 71 2.7 N 11 13 6 7 1020.1 1020.1 0.0
22/06:00pm 14.9 12.3 9.5 70 2.8 N 13 15 7 8 1020.0 1020.0 0.0
22/05:30pm 15.1 11.9 9.9 71 2.7 NNE 17 19 9 10 1020.0 1020.0 0.0
22/05:00pm 15.7 13.1 9.4 66 3.3 NNE 13 15 7 8 1020.1 1020.1 0.0
22/04:30pm 16.5 14.8 9.9 65 3.5 NNE 9 13 5 7 1020.1 1020.1 0.0
22/04:00pm 16.9 14.8 9.6 62 3.8 NNE 11 13 6 7 1020.1 1020.1 0.0
22/03:30pm 16.5 14.2 10.4 67 3.2 NNE 13 15 7 8 1020.3 1020.3 0.0
22/03:00pm 17.4 14.8 10.8 65 3.5 N 15 17 8 9 1020.3 1020.3 0.0
22/02:30pm 17.4 15.0 11.4 68 3.3 NNE 15 19 8 10 1020.3 1020.3 0.0
22/02:00pm 17.4 14.6 11.2 67 3.4 NNE 17 20 9 11 1020.6 1020.6 0.0
22/01:30pm 17.5 14.8 10.4 63 3.8 N 15 19 8 10 1021.1 1021.1 0.0
22/01:00pm 17.7 14.5 10.1 61 4.0 N 17 20 9 11 1021.4 1021.4 0.0
22/12:30pm 17.1 14.0 10.2 64 3.6 N 17 19 9 10 1022.0 1022.0 0.0
22/12:00pm 17.3 14.4 11.1 67 3.3 N 17 20 9 11 1022.6 1022.6 0.0
22/11:30am 17.0 13.8 11.1 68 3.2 N 19 22 10 12 1023.1 1023.1 0.0
22/11:00am 17.0 14.2 11.5 70 3.0 N 17 20 9 11 1023.6 1023.6 0.0
22/10:30am 17.0 14.3 11.7 71 2.9 N 17 20 9 11 1024.2 1024.2 0.0
22/10:00am 16.6 13.7 11.1 70 3.0 N 17 20 9 11 1024.4 1024.4 0.0
22/09:30am 16.5 13.9 11.9 74 2.5 N 17 20 9 11 1024.4 1024.4 0.0
22/09:00am 15.8 12.5 11.0 73 2.6 N 19 22 10 12 1024.3 1024.3 0.0
22/08:30am 15.4 12.5 11.0 75 2.3 N 17 20 9 11 1024.2 1024.2 0.0
22/08:00am 14.7 11.3 10.7 77 2.1 N 19 20 10 11 1024.1 1024.1 0.0
22/07:30am 14.7 11.4 10.9 78 2.0 N 19 22 10 12 1024.1 1024.1 0.0
22/07:00am 14.7 10.4 10.9 78 2.0 NNE 24 28 13 15 1023.7 1023.7 0.0
22/06:30am 14.8 10.2 11.0 78 2.0 NNE 26 30 14 16 1023.5 1023.5 0.0
22/06:00am 15.0 11.4 12.0 82 1.6 NNE 22 28 12 15 1023.2 1023.2 0.0
22/05:30am 14.9 12.3 12.0 83 1.6 NE 17 22 9 12 1023.3 1023.3 0.0
22/05:00am 14.7 12.0 11.7 82 1.6 NE 17 20 9 11 1023.5 1023.5 0.0
22/04:30am 14.8 11.5 11.6 81 1.7 NE 20 26 11 14 1023.5 1023.5 0.0
22/04:00am 14.7 10.5 11.1 79 1.9 NE 24 32 13 17 1023.4 1023.4 0.0
22/03:30am 14.8 11.2 11.8 82 1.6 NE 22 30 12 16 1023.6 1023.6 0.0
22/03:00am 14.6 11.0 11.7 83 1.6 NE 22 28 12 15 1023.9 1023.9 0.0
22/02:30am 14.7 11.1 11.7 82 1.6 NE 22 30 12 16 1024.1 1024.1 0.0
22/02:00am 14.9 10.3 12.2 84 1.5 NE 28 33 15 18 1024.4 1024.4 0.0
22/01:30am 14.8 11.0 12.3 85 1.4 ENE 24 30 13 16 1024.3 1024.3 0.0
22/01:00am 14.9 11.7 13.1 89 1.0 E 22 26 12 14 1024.4 1024.4 0.0
22/12:30am 14.8 12.1 12.8 88 1.1 ENE 19 20 10 11 1024.9 1024.9 0.0
22/12:00am 14.9 12.2 12.8 87 1.1 ENE 19 20 10 11 1025.2 1025.2 0.0
 
Date/Time
CST
Temp
°C
App
Temp
°C
Dew
Point
°C
Rel
Hum
%
Delta-T
°C
Wind Press
QNH
hPa
Press
MSL
hPa
Rain since
9am
mm
Dir  Spd
km/h
Gust
km/h
Spd
kts
Gust
kts
21/11:30pm 14.9 12.2 12.9 88 1.1 ENE 19 20 10 11 1025.3 1025.3 0.0
21/11:00pm 14.8 12.4 12.8 88 1.1 E 17 20 9 11 1025.7 1025.7 0.0
21/10:30pm 14.3 12.2 12.3 88 1.1 E 15 17 8 9 1025.7 1025.7 0.0
21/10:00pm 14.0 12.1 11.9 87 1.1 E 13 17 7 9 1026.0 1026.0 0.0
21/09:30pm 14.0 12.8 11.5 85 1.3 ESE 9 11 5 6 1026.1 1026.1 0.0
21/09:00pm 14.0 12.8 11.5 85 1.3 E 9 11 5 6 1026.2 1026.2 0.0
21/08:30pm 14.7 13.6 11.8 83 1.6 ENE 9 11 5 6 1026.4 1026.4 0.0
21/08:00pm 15.1 14.1 12.4 84 1.5 ENE 9 13 5 7 1026.4 1026.4 0.0
21/07:30pm 15.2 14.3 12.5 84 1.5 NE 9 11 5 6 1026.3 1026.3 0.0
21/07:00pm 14.9 14.2 11.5 80 1.8 NNE 6 7 3 4 1026.0 1026.0 0.0
21/06:30pm 15.3 15.9 11.9 80 1.8 CALM 0 0 0 0 1025.8 1025.8 0.0
21/06:00pm 15.5 16.1 11.9 79 1.9 CALM 0 0 0 0 1025.6 1025.6 0.0
21/05:30pm 15.6 15.0 11.6 77 2.1 N 6 7 3 4 1025.6 1025.6 0.0
21/05:00pm 16.1 15.3 11.7 75 2.4 N 7 9 4 5 1025.6 1025.6 0.0
21/04:30pm 16.6 15.1 12.0 74 2.5 N 11 13 6 7 1025.5 1025.5 0.0
21/04:00pm 17.0 15.5 11.9 72 2.8 N 11 13 6 7 1025.7 1025.7 0.0
21/03:30pm 17.5 16.3 12.8 74 2.6 NNW 11 13 6 7 1026.0 1026.0 0.0
21/03:00pm 17.6 16.0 12.9 74 2.6 NNW 13 15 7 8 1026.1 1026.1 0.0
21/02:30pm 17.6 15.7 12.9 74 2.6 N 15 19 8 10 1026.0 1026.0 0.0
21/02:00pm 17.6 16.2 13.5 77 2.3 N 13 20 7 11 1026.0 1026.0 0.0
21/01:30pm 17.7 16.3 13.4 76 2.4 NNE 13 17 7 9 1026.2 1026.2 0.0
21/01:00pm 17.7 16.3 13.4 76 2.4 NNE 13 15 7 8 1026.4 1026.4 0.0
21/12:30pm 17.9 16.6 13.6 76 2.4 NE 13 17 7 9 1026.8 1026.8 0.0
21/12:00pm 17.9 16.6 13.6 76 2.4 NE 13 17 7 9 1027.2 1027.2 0.0
21/11:30am 18.1 17.0 14.2 78 2.2 ENE 13 19 7 10 1027.8 1027.8 0.0
21/11:00am 17.5 16.1 13.4 77 2.3 ENE 13 15 7 8 1027.9 1027.9 0.0
21/10:30am 17.5 16.8 13.2 76 2.4 ENE 9 13 5 7 1028.2 1028.2 0.0
21/10:00am 17.0 15.9 13.1 78 2.2 ENE 11 15 6 8 1028.2 1028.2 0.0
21/09:30am 16.9 16.2 13.2 79 2.1 E 9 13 5 7 1028.1 1028.1 0.0
21/09:00am 16.7 15.8 13.8 83 1.6 E 11 13 6 7 1027.9 1027.9 0.0
21/08:30am 15.8 14.9 13.8 88 1.1 ESE 11 15 6 8 1027.5 1027.5 0.0
21/08:00am 14.8 13.6 12.8 88 1.1 SSE 11 13 6 7 1027.4 1027.4 0.0
21/07:30am 14.8 14.3 12.5 86 1.3 SSE 7 9 4 5 1027.4 1027.4 0.0
21/07:00am 14.5 13.9 12.2 86 1.2 SSE 7 9 4 5 1027.0 1027.0 0.0
21/06:30am 14.8 14.3 12.5 86 1.3 SSE 7 9 4 5 1026.5 1026.5 0.0
21/06:00am 15.3 15.4 12.8 85 1.4 SSE 4 6 2 3 1026.5 1026.5 0.0
21/05:30am 15.1 14.8 12.6 85 1.4 SSE 6 7 3 4 1026.4 1026.4 0.0
21/05:00am 15.1 14.6 12.8 86 1.3 SSE 7 9 4 5 1026.3 1026.3 0.0
21/04:30am 15.2 14.8 12.9 86 1.3 SSE 7 9 4 5 1026.4 1026.4 0.0
21/04:00am 15.4 15.0 13.1 86 1.3 SSE 7 7 4 4 1026.5 1026.5 0.0
21/03:30am 15.4 15.1 12.7 84 1.5 S 6 7 3 4 1026.4 1026.4 0.0
21/03:00am 15.4 14.9 12.7 84 1.5 SSE 7 9 4 5 1026.3 1026.3 0.0
21/02:30am 15.5 15.0 12.6 83 1.6 S 7 11 4 6 1026.2 1026.2 0.0
21/02:00am 15.5 15.2 12.6 83 1.6 SSW 6 7 3 4 1026.2 1026.2 0.0
21/01:30am 15.5 16.3 12.6 83 1.6 CALM 0 0 0 0 1026.1 1026.1 0.0
21/01:00am 15.3 16.1 12.4 83 1.6 CALM 0 0 0 0 1026.1 1026.1 0.0
21/12:30am 15.4 16.2 12.5 83 1.6 CALM 0 0 0 0 1025.9 1025.9 0.0
21/12:00am 15.6 16.4 12.5 82 1.7 CALM 0 0 0 0 1026.1 1026.1 0.0
 
Date/Time
CST
Temp
°C
App
Temp
°C
Dew
Point
°C
Rel
Hum
%
Delta-T
°C
Wind Press
QNH
hPa
Press
MSL
hPa
Rain since
9am
mm
Dir  Spd
km/h
Gust
km/h
Spd
kts
Gust
kts
20/11:30pm 15.8 15.5 12.7 82 1.7 S 6 9 3 5 1026.0 1026.0 0.0
20/11:00pm 15.9 15.4 12.8 82 1.7 SSW 7 9 4 5 1026.0 1026.0 0.0
20/10:30pm 16.2 15.1 13.1 82 1.7 SSW 11 13 6 7 1025.9 1025.9 0.0
20/10:00pm 16.2 14.8 13.3 83 1.6 S 13 15 7 8 1025.9 1025.9 0.0
20/09:30pm 16.6 15.3 13.7 83 1.6 S 13 15 7 8 1025.9 1025.9 0.0
20/09:00pm 16.7 14.5 13.2 80 1.9 SSW 17 20 9 11 1025.9 1025.9 0.0
20/08:30pm 16.9 14.7 13.4 80 2.0 WSW 17 20 9 11 1025.8 1025.8 0.0
20/08:00pm 16.7 14.1 13.8 83 1.6 WNW 20 24 11 13 1025.7 1025.7 0.0
20/07:30pm 16.8 13.9 14.1 84 1.5 WNW 22 26 12 14 1025.6 1025.6 0.0
20/07:00pm 16.8 13.9 14.1 84 1.5 WNW 22 26 12 14 1025.3 1025.3 0.0
20/06:30pm 16.8 13.1 13.9 83 1.6 WNW 26 30 14 16 1025.2 1025.2 0.0
20/06:00pm 16.9 13.2 13.8 82 1.7 W 26 30 14 16 1025.1 1025.1 0.0
20/05:30pm 16.8 13.0 13.7 82 1.7 WNW 26 32 14 17 1024.9 1024.9 0.0
20/05:00pm 17.2 13.1 13.9 81 1.9 WNW 28 30 15 16 1024.7 1024.7 0.0
20/04:30pm 17.5 13.4 13.8 79 2.1 WNW 28 32 15 17 1024.6 1024.6 0.0
20/04:00pm 17.7 14.0 14.0 79 2.1 WNW 26 32 14 17 1024.6 1024.6 0.0
20/03:30pm 17.7 13.2 13.8 78 2.2 WNW 30 37 16 20 1024.7 1024.7 0.0
20/03:00pm 17.8 12.7 13.7 77 2.3 WNW 33 39 18 21 1024.6 1024.6 0.0
20/02:30pm 17.6 12.0 13.3 76 2.4 WNW 35 41 19 22 1024.6 1024.6 0.0
20/02:00pm 17.5 12.3 13.4 77 2.3 NW 33 41 18 22 1024.6 1024.6 0.0
20/01:30pm 17.5 12.3 13.4 77 2.3 NW 33 39 18 21 1024.6 1024.6 0.0
20/01:00pm 17.6 11.8 12.7 73 2.7 NW 35 39 19 21 1024.8 1024.8 0.0
20/12:30pm 17.4 11.9 12.3 72 2.8 NW 33 39 18 21 1025.0 1025.0 0.0
20/12:00pm 17.2 12.0 12.7 75 2.5 NW 32 35 17 19 1025.4 1025.4 0.0
20/11:30am 16.8 11.4 12.1 74 2.6 NW 32 37 17 20 1025.8 1025.8 0.0
20/11:00am 16.7 11.7 12.3 75 2.4 NW 30 35 16 19 1026.0 1026.0 0.0
20/10:30am 16.5 11.1 12.3 76 2.3 NW 32 35 17 19 1026.0 1026.0 0.0
20/10:00am 16.2 10.7 12.0 76 2.3 NW 32 37 17 20 1025.8 1025.8 0.0
20/09:30am 15.9 10.2 11.3 74 2.5 NW 32 37 17 20 1025.5 1025.5 0.0
20/09:00am 15.6 10.7 11.2 75 2.3 NNW 28 33 15 18 1025.3 1025.3 0.2
20/08:30am 15.3 10.3 11.1 76 2.2 NNW 28 32 15 17 1025.1 1025.1 0.2
20/08:00am 14.8 10.4 11.6 81 1.7 NNW 26 30 14 16 1025.1 1025.1 0.2
20/07:30am 14.7 10.3 11.8 83 1.6 N 26 30 14 16 1025.1 1025.1 0.2
20/07:00am 14.8 10.3 12.5 86 1.3 N 28 32 15 17 1024.9 1024.9 0.2
20/06:30am 14.9 10.4 12.6 86 1.3 N 28 32 15 17 1024.8 1024.8 0.2
20/06:00am 14.8 11.0 12.3 85 1.4 N 24 28 13 15 1024.6 1024.6 0.2
20/05:30am 14.8 10.8 11.8 82 1.6 N 24 28 13 15 1024.5 1024.5 0.2
20/05:00am 14.8 11.1 11.4 80 1.8 N 22 26 12 14 1024.7 1024.7 0.2
20/04:30am 14.6 11.1 11.0 79 1.9 N 20 24 11 13 1024.7 1024.7 0.2
20/04:00am 14.6 11.1 11.0 79 1.9 N 20 26 11 14 1024.9 1024.9 0.2
20/03:30am 14.7 11.2 10.9 78 2.0 N 20 24 11 13 1025.2 1025.2 0.2
20/03:00am 14.4 10.8 10.4 77 2.1 N 20 22 11 12 1025.3 1025.3 0.2
20/02:30am 14.6 10.8 11.2 80 1.8 N 22 24 12 13 1025.6 1025.6 0.2
20/02:00am 14.5 10.5 11.7 83 1.5 N 24 30 13 16 1025.8 1025.8 0.2
20/01:30am 14.6 10.3 11.9 84 1.5 N 26 30 14 16 1025.9 1025.9 0.2
20/01:00am 14.6 10.2 11.7 83 1.6 N 26 30 14 16 1026.2 1026.2 0.2
20/12:30am 14.5 10.4 11.3 81 1.7 N 24 28 13 15 1026.4 1026.4 0.2
20/12:00am 14.5 10.4 11.5 82 1.6 N 24 28 13 15 1026.6 1026.6 0.2
 
Date/Time
CST
Temp
°C
App
Temp
°C
Dew
Point
°C
Rel
Hum
%
Delta-T
°C
Wind Press
QNH
hPa
Press
MSL
hPa
Rain since
9am
mm
Dir  Spd
km/h
Gust
km/h
Spd
kts
Gust
kts
19/11:30pm 14.6 10.5 11.6 82 1.6 N 24 28 13 15 1026.9 1026.9 0.2
19/11:00pm 14.4 11.0 11.4 82 1.6 N 20 24 11 13 1027.0 1027.0 0.2
19/10:30pm 14.3 11.2 11.5 83 1.5 N 19 20 10 11 1027.2 1027.2 0.2
19/10:00pm 14.5 11.4 11.7 83 1.5 N 19 20 10 11 1027.3 1027.3 0.2
19/09:30pm 14.5 11.7 11.5 82 1.6 N 17 19 9 10 1027.4 1027.4 0.2

Other Formats:

Comma delimited format used in spreadsheet applications
http://www.bom.gov.au/fwo/IDS60801/IDS60801.94804.axf

JavaScript Object Notation format (JSON) in row-major order
http://www.bom.gov.au/fwo/IDS60801/IDS60801.94804.json